createdAt,value
2022-08-08T00:00:52.189Z,0.00
2022-08-08T00:00:54.390Z,0.00
2022-08-08T00:01:52.500Z,0.00
2022-08-08T00:02:38.772Z,0.00
2022-08-08T00:03:37.926Z,0.00
2022-08-08T00:04:37.877Z,0.00
2022-08-08T00:05:43.341Z,0.00
2022-08-08T00:06:38.699Z,0.00
2022-08-08T00:07:38.030Z,0.00
2022-08-08T00:08:38.497Z,0.00
2022-08-08T00:09:37.655Z,0.00
2022-08-08T00:10:37.666Z,0.00
2022-08-08T00:11:46.885Z,0.00
2022-08-08T00:12:38.633Z,0.00
2022-08-08T00:14:16.327Z,0.00
2022-08-08T00:14:47.978Z,0.00
2022-08-08T00:15:56.602Z,0.00
2022-08-08T00:16:38.586Z,0.00
2022-08-08T00:18:01.798Z,0.00
2022-08-08T00:18:38.569Z,0.00
2022-08-08T00:19:37.552Z,0.00
2022-08-08T00:20:37.703Z,0.00
2022-08-08T00:21:39.408Z,0.00
2022-08-08T00:22:39.572Z,0.00
2022-08-08T00:23:42.254Z,0.00
2022-08-08T00:24:39.267Z,0.00
2022-08-08T00:25:44.885Z,0.00
2022-08-08T00:26:38.475Z,0.00
2022-08-08T00:27:37.455Z,0.00
2022-08-08T00:28:38.266Z,0.00
2022-08-08T00:29:46.602Z,0.00
2022-08-08T00:30:45.123Z,0.00
2022-08-08T00:32:15.104Z,0.00
2022-08-08T00:32:38.572Z,0.00
2022-08-08T00:34:17.348Z,0.00
2022-08-08T00:34:38.378Z,0.00
2022-08-08T00:35:38.095Z,0.00
2022-08-08T00:36:37.374Z,0.00
2022-08-08T00:37:47.315Z,0.00
2022-08-08T00:38:52.074Z,0.00
2022-08-08T00:41:12.008Z,0.00
2022-08-08T00:41:12.010Z,0.00
2022-08-08T00:41:54.626Z,0.00
2022-08-08T00:42:41.839Z,0.00
2022-08-08T00:43:40.322Z,0.00
2022-08-08T00:44:37.285Z,0.00
2022-08-08T00:45:37.265Z,0.00
2022-08-08T00:46:57.548Z,0.00
2022-08-08T00:48:02.020Z,0.00
2022-08-08T00:48:38.244Z,0.00
2022-08-08T00:49:37.214Z,0.00
2022-08-08T00:50:40.667Z,0.00
2022-08-08T00:51:41.990Z,0.00
2022-08-08T00:52:39.283Z,0.00
2022-08-08T00:53:43.508Z,0.00
2022-08-08T00:54:38.163Z,0.00
2022-08-08T00:55:53.832Z,0.00
2022-08-08T00:56:38.146Z,0.00
2022-08-08T00:57:38.025Z,0.00
2022-08-08T00:58:37.795Z,0.00
2022-08-08T00:59:43.870Z,0.00
2022-08-08T01:00:38.107Z,0.00
2022-08-08T01:01:38.905Z,0.00
2022-08-08T01:03:57.973Z,0.00
2022-08-08T01:04:02.838Z,0.00
2022-08-08T01:04:41.986Z,0.00
2022-08-08T01:05:58.438Z,0.00
2022-08-08T01:06:38.043Z,0.00
2022-08-08T01:07:55.714Z,0.00
2022-08-08T01:08:38.764Z,0.00
2022-08-08T01:09:41.445Z,0.00
2022-08-08T01:10:36.992Z,0.00
2022-08-08T01:11:37.593Z,0.00
2022-08-08T01:12:37.864Z,0.00
2022-08-08T01:13:43.999Z,0.00
2022-08-08T01:14:54.318Z,0.00
2022-08-08T01:15:44.225Z,0.00
2022-08-08T01:16:37.914Z,0.00
2022-08-08T01:17:53.753Z,0.00
2022-08-08T01:18:53.708Z,0.00
2022-08-08T01:19:52.562Z,0.00
2022-08-08T01:20:37.885Z,0.00
2022-08-08T01:22:11.999Z,0.00
2022-08-08T01:22:38.132Z,0.00
2022-08-08T01:24:06.729Z,0.00
2022-08-08T01:24:39.773Z,0.00
2022-08-08T01:25:40.193Z,0.00
2022-08-08T01:26:36.824Z,0.00
2022-08-08T01:27:44.354Z,0.00
2022-08-08T01:28:38.375Z,0.00
2022-08-08T01:29:58.668Z,0.00
2022-08-08T01:30:38.564Z,0.00
2022-08-08T01:32:14.892Z,0.00
2022-08-08T01:32:39.676Z,0.00
2022-08-08T01:33:43.225Z,0.00
2022-08-08T01:34:38.573Z,0.00
2022-08-08T01:35:38.554Z,0.00
2022-08-08T01:36:37.473Z,0.00
2022-08-08T01:37:56.313Z,0.00
2022-08-08T01:38:38.200Z,0.00
2022-08-08T01:39:42.117Z,0.00
2022-08-08T01:40:37.483Z,0.00
2022-08-08T01:41:38.220Z,0.00
2022-08-08T01:42:37.706Z,0.00
2022-08-08T01:43:38.888Z,0.00
2022-08-08T01:44:36.602Z,0.00
2022-08-08T01:45:37.821Z,0.00
2022-08-08T01:46:36.585Z,0.00
2022-08-08T01:48:16.516Z,0.00
2022-08-08T01:48:38.363Z,0.00
2022-08-08T01:49:38.737Z,0.00
2022-08-08T01:50:38.023Z,0.00
2022-08-08T01:52:04.533Z,0.00
2022-08-08T01:54:03.945Z,0.00
2022-08-08T01:55:14.869Z,0.00
2022-08-08T01:55:26.119Z,0.00
2022-08-08T01:56:29.293Z,0.00
2022-08-08T01:56:37.733Z,0.00
2022-08-08T01:58:12.205Z,0.00
2022-08-08T01:58:46.295Z,0.00
2022-08-08T02:00:03.177Z,0.00
2022-08-08T02:00:37.595Z,0.00
2022-08-08T02:02:00.090Z,0.00
2022-08-08T02:02:39.881Z,0.00
2022-08-08T02:03:56.772Z,0.00
2022-08-08T02:04:37.385Z,0.00
2022-08-08T02:05:55.901Z,0.00
2022-08-08T02:06:43.361Z,0.00
2022-08-08T02:07:41.991Z,0.00
2022-08-08T02:08:38.126Z,0.00
2022-08-08T02:10:02.772Z,0.00
2022-08-08T02:10:44.661Z,0.00
2022-08-08T02:11:52.551Z,0.00
2022-08-08T02:12:37.993Z,0.00
2022-08-08T02:13:54.772Z,0.00
2022-08-08T02:14:55.873Z,0.00
2022-08-08T02:15:38.703Z,0.00
2022-08-08T02:16:36.443Z,0.00
2022-08-08T02:17:42.792Z,0.00
2022-08-08T02:18:37.205Z,0.00
2022-08-08T02:19:57.010Z,0.00
2022-08-08T02:21:01.359Z,0.00
2022-08-08T02:21:37.241Z,0.00
2022-08-08T02:22:52.463Z,0.00
2022-08-08T02:23:37.186Z,0.00
2022-08-08T02:24:36.853Z,0.00
2022-08-08T02:25:48.368Z,0.00
2022-08-08T02:26:37.934Z,0.00
2022-08-08T02:27:42.347Z,0.00
2022-08-08T02:28:37.855Z,0.00
2022-08-08T02:29:41.867Z,0.00
2022-08-08T02:30:37.806Z,0.00
2022-08-08T02:31:57.878Z,0.00
2022-08-08T02:32:38.085Z,0.00
2022-08-08T02:33:41.377Z,0.00
2022-08-08T02:34:37.933Z,0.00
2022-08-08T02:36:03.566Z,0.00
2022-08-08T02:36:37.027Z,0.00
2022-08-08T02:37:53.359Z,0.00
2022-08-08T02:38:37.122Z,0.00
2022-08-08T02:39:42.097Z,0.00
2022-08-08T02:40:37.035Z,0.00
2022-08-08T02:42:03.980Z,0.00
2022-08-08T02:42:39.104Z,0.00
2022-08-08T02:44:37.667Z,0.00
2022-08-08T02:44:56.370Z,0.00
2022-08-08T02:45:51.145Z,0.00
2022-08-08T02:46:37.483Z,0.00
2022-08-08T02:47:37.941Z,0.00
2022-08-08T02:48:36.583Z,0.00
2022-08-08T02:49:47.962Z,0.00
2022-08-08T02:50:36.855Z,0.00
2022-08-08T02:51:47.598Z,0.00
2022-08-08T02:52:38.595Z,0.00
2022-08-08T02:53:36.482Z,0.00
2022-08-08T02:54:35.840Z,0.00
2022-08-08T02:55:37.653Z,0.00
2022-08-08T02:56:36.585Z,0.00
2022-08-08T02:57:44.773Z,0.00
2022-08-08T02:58:37.672Z,0.00
2022-08-08T02:59:56.703Z,0.00
2022-08-08T03:00:36.800Z,0.00
2022-08-08T03:01:47.538Z,0.00
2022-08-08T03:02:37.569Z,0.00
2022-08-08T03:05:00.252Z,0.00
2022-08-08T03:05:04.437Z,0.00
2022-08-08T03:05:45.162Z,0.00
2022-08-08T03:06:36.814Z,0.00
2022-08-08T03:07:41.211Z,0.00
2022-08-08T03:08:37.481Z,0.00
2022-08-08T03:09:35.655Z,0.00
2022-08-08T03:10:36.913Z,0.00
2022-08-08T03:12:01.313Z,0.00
2022-08-08T03:13:01.434Z,0.00
2022-08-08T03:15:58.223Z,0.00
2022-08-08T03:15:58.629Z,0.00
2022-08-08T03:16:00.783Z,0.00
2022-08-08T03:16:37.275Z,0.00
2022-08-08T03:17:39.519Z,0.00
2022-08-08T03:18:36.262Z,0.00
2022-08-08T03:19:36.452Z,0.00
2022-08-08T03:20:35.619Z,0.00
2022-08-08T03:21:54.898Z,0.00
2022-08-08T03:22:38.465Z,0.00
2022-08-08T03:23:56.620Z,0.00
2022-08-08T03:24:36.812Z,0.00
2022-08-08T03:25:37.382Z,0.00
2022-08-08T03:26:41.938Z,0.00
2022-08-08T03:27:42.109Z,0.00
2022-08-08T03:28:37.211Z,0.00
2022-08-08T03:29:55.090Z,0.00
2022-08-08T03:30:37.163Z,0.00
2022-08-08T03:31:52.709Z,0.00
2022-08-08T03:32:41.517Z,0.00
2022-08-08T03:33:54.969Z,0.00
2022-08-08T03:34:39.756Z,4.00
2022-08-08T03:35:35.342Z,4.00
2022-08-08T03:36:35.342Z,0.00
2022-08-08T03:38:53.107Z,4.00
2022-08-08T03:38:55.673Z,4.00
2022-08-08T03:39:51.994Z,4.00
2022-08-08T03:40:37.189Z,4.00
2022-08-08T03:42:12.710Z,4.00
2022-08-08T03:42:36.250Z,8.00
2022-08-08T03:43:38.237Z,8.00
2022-08-08T03:44:35.324Z,12.00
2022-08-08T03:46:05.745Z,12.00
2022-08-08T03:46:36.183Z,12.00
2022-08-08T03:47:45.411Z,16.00
2022-08-08T03:49:09.739Z,16.00
2022-08-08T03:49:56.470Z,16.00
2022-08-08T03:50:36.174Z,20.00
2022-08-08T03:51:50.768Z,24.00
2022-08-08T03:52:36.111Z,24.00
2022-08-08T03:53:42.480Z,32.00
2022-08-08T03:54:52.067Z,32.00
2022-08-08T03:55:58.063Z,36.00
2022-08-08T03:56:36.071Z,44.00
2022-08-08T03:58:31.084Z,44.00
2022-08-08T03:58:37.846Z,52.00
2022-08-08T03:59:35.041Z,60.00
2022-08-08T04:00:36.012Z,64.00
2022-08-08T04:02:32.735Z,72.00
2022-08-08T04:02:47.679Z,76.00
2022-08-08T04:03:58.640Z,84.00
2022-08-08T04:04:36.052Z,92.00
2022-08-08T04:05:35.144Z,100.00
2022-08-08T04:06:35.083Z,108.00
2022-08-08T04:07:35.110Z,116.00
2022-08-08T04:08:35.153Z,128.00
2022-08-08T04:09:58.983Z,136.00
2022-08-08T04:10:36.099Z,148.00
2022-08-08T04:11:57.673Z,156.00
2022-08-08T04:12:35.886Z,164.00
2022-08-08T04:14:24.833Z,180.00
2022-08-08T04:14:36.664Z,192.00
2022-08-08T04:15:38.930Z,200.00
2022-08-08T04:16:38.823Z,212.00
2022-08-08T04:17:46.222Z,224.00
2022-08-08T04:18:44.892Z,240.00
2022-08-08T04:19:36.648Z,256.00
2022-08-08T04:20:34.793Z,264.00
2022-08-08T04:21:38.026Z,280.00
2022-08-08T04:22:35.971Z,292.00
2022-08-08T04:24:05.703Z,312.00
2022-08-08T04:24:35.761Z,324.00
2022-08-08T04:25:38.229Z,340.00
2022-08-08T04:26:40.041Z,352.00
2022-08-08T04:28:03.090Z,372.00
2022-08-08T04:28:40.574Z,388.00
2022-08-08T04:29:37.095Z,404.00
2022-08-08T04:30:36.667Z,420.00
2022-08-08T04:31:59.631Z,436.00
2022-08-08T04:32:35.662Z,456.00
2022-08-08T04:33:38.589Z,468.00
2022-08-08T04:34:43.102Z,484.00
2022-08-08T04:35:39.565Z,504.00
2022-08-08T04:36:34.611Z,516.00
2022-08-08T04:37:34.620Z,532.00
2022-08-08T04:38:34.590Z,548.00
2022-08-08T04:40:03.959Z,560.00
2022-08-08T04:40:35.603Z,576.00
2022-08-08T04:41:36.838Z,588.00
2022-08-08T04:42:34.550Z,604.00
2022-08-08T04:43:46.269Z,616.00
2022-08-08T04:44:35.711Z,624.00
2022-08-08T04:45:34.530Z,636.00
2022-08-08T04:46:34.528Z,648.00
2022-08-08T04:47:36.439Z,660.00
2022-08-08T04:48:35.492Z,664.00
2022-08-08T04:50:00.303Z,672.00
2022-08-08T04:50:37.756Z,684.00
2022-08-08T04:51:55.009Z,692.00
2022-08-08T04:52:35.603Z,700.00
2022-08-08T04:54:26.818Z,708.00
2022-08-08T04:54:39.463Z,708.00
2022-08-08T04:55:47.840Z,712.00
2022-08-08T04:56:35.391Z,716.00
2022-08-08T04:57:34.656Z,720.00
2022-08-08T04:58:34.392Z,724.00
2022-08-08T04:59:41.878Z,732.00
2022-08-08T05:00:35.602Z,740.00
2022-08-08T05:01:35.646Z,748.00
2022-08-08T05:02:35.600Z,752.00
2022-08-08T05:04:09.809Z,756.00
2022-08-08T05:04:35.343Z,768.00
2022-08-08T05:05:44.653Z,780.00
2022-08-08T05:06:36.384Z,824.00
2022-08-08T05:07:42.845Z,888.00
2022-08-08T05:08:35.239Z,940.00
2022-08-08T05:09:36.208Z,952.00
2022-08-08T05:10:34.243Z,964.00
2022-08-08T05:11:38.744Z,980.00
2022-08-08T05:12:37.096Z,992.00
2022-08-08T05:13:35.201Z,1008.00
2022-08-08T05:14:35.181Z,1024.00
2022-08-08T05:16:48.179Z,1044.00
2022-08-08T05:16:51.480Z,1064.00
2022-08-08T05:17:53.824Z,1084.00
2022-08-08T05:18:35.161Z,1108.00
2022-08-08T05:20:11.423Z,1136.00
2022-08-08T05:20:38.905Z,1164.00
2022-08-08T05:21:43.315Z,1192.00
2022-08-08T05:22:35.070Z,1220.00
2022-08-08T05:23:41.176Z,1244.00
2022-08-08T05:24:37.306Z,1260.00
2022-08-08T05:25:40.414Z,1280.00
2022-08-08T05:26:35.031Z,1296.00
2022-08-08T05:27:41.651Z,1308.00
2022-08-08T05:28:55.695Z,1320.00
2022-08-08T05:29:35.862Z,1328.00
2022-08-08T05:30:34.762Z,1332.00
2022-08-08T05:32:04.075Z,1332.00
2022-08-08T05:32:36.598Z,1336.00
2022-08-08T05:33:48.304Z,1344.00
2022-08-08T05:34:34.964Z,1348.00
2022-08-08T05:35:33.931Z,1352.00
2022-08-08T05:36:34.939Z,1348.00
2022-08-08T05:37:49.129Z,1348.00
2022-08-08T05:38:35.221Z,1344.00
2022-08-08T05:39:35.072Z,1340.00
2022-08-08T05:40:33.889Z,1332.00
2022-08-08T05:41:33.861Z,1332.00
2022-08-08T05:42:35.135Z,1352.00
2022-08-08T05:43:39.507Z,1368.00
2022-08-08T05:44:34.850Z,1384.00
2022-08-08T05:45:41.633Z,1392.00
2022-08-08T05:46:34.811Z,1392.00
2022-08-08T05:47:52.677Z,1388.00
2022-08-08T05:48:36.261Z,1388.00
2022-08-08T05:49:33.770Z,1372.00
2022-08-08T05:50:33.885Z,1364.00
2022-08-08T05:51:37.483Z,1352.00
2022-08-08T05:52:36.065Z,1340.00
2022-08-08T05:54:25.197Z,1340.00
2022-08-08T05:54:50.247Z,1344.00
2022-08-08T05:56:10.376Z,1352.00
2022-08-08T05:56:34.702Z,1352.00
2022-08-08T05:58:05.715Z,1364.00
2022-08-08T05:58:34.964Z,1372.00
2022-08-08T05:59:53.520Z,1384.00
2022-08-08T06:00:34.673Z,1392.00
2022-08-08T06:01:52.449Z,1396.00
2022-08-08T06:02:34.643Z,1404.00
2022-08-08T06:03:33.832Z,1408.00
2022-08-08T06:04:33.613Z,1416.00
2022-08-08T06:05:36.184Z,1420.00
2022-08-08T06:06:35.008Z,1428.00
2022-08-08T06:07:33.563Z,1428.00
2022-08-08T06:08:35.150Z,1424.00
2022-08-08T06:09:59.142Z,1408.00
2022-08-08T06:10:34.999Z,1400.00
2022-08-08T06:11:33.532Z,1392.00
2022-08-08T06:12:35.298Z,1380.00
2022-08-08T06:13:36.249Z,1380.00
2022-08-08T06:14:34.511Z,1368.00
2022-08-08T06:15:51.196Z,1348.00
2022-08-08T06:16:34.470Z,1328.00
2022-08-08T06:17:50.935Z,1312.00
2022-08-08T06:18:34.471Z,1300.00
2022-08-08T06:19:35.306Z,1284.00
2022-08-08T06:20:34.152Z,1272.00
2022-08-08T06:21:48.787Z,1228.00
2022-08-08T06:22:35.415Z,1236.00
2022-08-08T06:23:52.680Z,1252.00
2022-08-08T06:24:36.124Z,1292.00
2022-08-08T06:26:38.349Z,1300.00
2022-08-08T06:26:44.196Z,1300.00
2022-08-08T06:27:34.344Z,1300.00
2022-08-08T06:28:33.341Z,1300.00
2022-08-08T06:30:00.551Z,1296.00
2022-08-08T06:30:34.311Z,1284.00
2022-08-08T06:32:09.137Z,1268.00
2022-08-08T06:32:34.329Z,1288.00
2022-08-08T06:33:37.282Z,1320.00
2022-08-08T06:34:34.972Z,1372.00
2022-08-08T06:36:06.925Z,1368.00
2022-08-08T06:36:37.260Z,1372.00
2022-08-08T06:37:37.554Z,1384.00
2022-08-08T06:38:33.260Z,1376.00
2022-08-08T06:39:34.037Z,1384.00
2022-08-08T06:40:37.033Z,1412.00
2022-08-08T06:41:33.290Z,1444.00
2022-08-08T06:42:34.092Z,1460.00
2022-08-08T06:43:33.866Z,1492.00
2022-08-08T06:44:33.632Z,1524.00
2022-08-08T06:45:33.818Z,1544.00
2022-08-08T06:46:33.504Z,1564.00
2022-08-08T06:47:33.728Z,1544.00
2022-08-08T06:48:34.125Z,1524.00
2022-08-08T06:49:55.502Z,1500.00
2022-08-08T06:50:38.628Z,1472.00
2022-08-08T06:51:52.436Z,1428.00
2022-08-08T06:52:34.791Z,1424.00
2022-08-08T06:53:39.880Z,1460.00
2022-08-08T06:54:34.063Z,1464.00
2022-08-08T06:55:37.694Z,1496.00
2022-08-08T06:56:34.041Z,1516.00
2022-08-08T06:57:54.056Z,1564.00
2022-08-08T06:58:34.730Z,1600.00
2022-08-08T06:59:41.993Z,1616.00
2022-08-08T07:00:33.974Z,1624.00
2022-08-08T07:02:27.913Z,1632.00
2022-08-08T07:02:33.995Z,1644.00
2022-08-08T07:03:52.261Z,1664.00
2022-08-08T07:04:37.412Z,1688.00
2022-08-08T07:05:39.975Z,1712.00
2022-08-08T07:06:33.930Z,1724.00
2022-08-08T07:07:33.042Z,1732.00
2022-08-08T07:08:33.646Z,1736.00
2022-08-08T07:09:41.944Z,1728.00
2022-08-08T07:10:34.623Z,1732.00
2022-08-08T07:11:51.220Z,1732.00
2022-08-08T07:12:34.562Z,1740.00
2022-08-08T07:13:33.533Z,1748.00
2022-08-08T07:14:33.587Z,1768.00
2022-08-08T07:16:05.319Z,1800.00
2022-08-08T07:16:33.804Z,1832.00
2022-08-08T07:18:00.921Z,1860.00
2022-08-08T07:18:35.776Z,1892.00
2022-08-08T07:19:32.743Z,1924.00
2022-08-08T07:20:33.515Z,1956.00
2022-08-08T07:21:34.443Z,1984.00
2022-08-08T07:22:33.585Z,1996.00
2022-08-08T07:24:02.266Z,2000.00
2022-08-08T07:24:33.715Z,1988.00
2022-08-08T07:25:33.411Z,1992.00
2022-08-08T07:26:35.997Z,1972.00
2022-08-08T07:27:47.236Z,1936.00
2022-08-08T07:28:34.559Z,1924.00
2022-08-08T07:30:00.011Z,1900.00
2022-08-08T07:30:33.664Z,1876.00
2022-08-08T07:31:35.285Z,1820.00
2022-08-08T07:32:33.387Z,1792.00
2022-08-08T07:33:38.194Z,1772.00
2022-08-08T07:34:33.594Z,1764.00
2022-08-08T07:35:35.445Z,1764.00
2022-08-08T07:36:32.592Z,1748.00
2022-08-08T07:37:55.848Z,1740.00
2022-08-08T07:38:35.497Z,1728.00
2022-08-08T07:39:45.668Z,1740.00
2022-08-08T07:40:33.967Z,1732.00
2022-08-08T07:41:58.515Z,1736.00
2022-08-08T07:42:34.417Z,1728.00
2022-08-08T07:43:37.309Z,1672.00
2022-08-08T07:44:40.315Z,1640.00
2022-08-08T07:45:34.916Z,1568.00
2022-08-08T07:46:33.466Z,1544.00
2022-08-08T07:47:38.982Z,1532.00
2022-08-08T07:48:34.156Z,1536.00
2022-08-08T07:49:33.297Z,1544.00
2022-08-08T07:50:32.417Z,1524.00
2022-08-08T07:51:53.177Z,1500.00
2022-08-08T07:52:33.424Z,1492.00
2022-08-08T07:54:00.737Z,1480.00
2022-08-08T07:54:35.316Z,1472.00
2022-08-08T07:55:36.722Z,1484.00
2022-08-08T07:56:35.798Z,1484.00
2022-08-08T07:57:36.304Z,1492.00
2022-08-08T07:58:33.196Z,1500.00
2022-08-08T07:59:37.724Z,1520.00
2022-08-08T08:00:34.027Z,1528.00
2022-08-08T08:02:35.301Z,1516.00
2022-08-08T08:02:38.574Z,1520.00
2022-08-08T08:03:43.504Z,1520.00
2022-08-08T08:04:35.935Z,1512.00
2022-08-08T08:05:34.062Z,1504.00
2022-08-08T08:06:32.939Z,1488.00
2022-08-08T08:07:37.887Z,1512.00
2022-08-08T08:08:33.229Z,1516.00
2022-08-08T08:09:35.723Z,1528.00
2022-08-08T08:10:33.352Z,1540.00
2022-08-08T08:11:34.101Z,1544.00
2022-08-08T08:12:41.230Z,1552.00
2022-08-08T08:13:42.749Z,1556.00
2022-08-08T08:14:33.158Z,1556.00
2022-08-08T08:15:32.840Z,1548.00
2022-08-08T08:16:33.009Z,1552.00
2022-08-08T08:17:44.977Z,1548.00
2022-08-08T08:18:37.408Z,1552.00
2022-08-08T08:19:45.841Z,1544.00
2022-08-08T08:20:33.760Z,1552.00
2022-08-08T08:21:44.167Z,1552.00
2022-08-08T08:22:34.052Z,1548.00
2022-08-08T08:23:40.887Z,1556.00
2022-08-08T08:24:35.176Z,1552.00
2022-08-08T08:25:42.504Z,1552.00
2022-08-08T08:26:33.089Z,1556.00
2022-08-08T08:27:32.740Z,1556.00
2022-08-08T08:28:32.878Z,1556.00
2022-08-08T08:29:32.548Z,1556.00
2022-08-08T08:30:32.719Z,1560.00
2022-08-08T08:31:34.804Z,1560.00
2022-08-08T08:32:36.394Z,1560.00
2022-08-08T08:33:31.960Z,1564.00
2022-08-08T08:34:33.867Z,1568.00
2022-08-08T08:36:20.111Z,1588.00
2022-08-08T08:36:32.912Z,1592.00
2022-08-08T08:37:32.181Z,1588.00
2022-08-08T08:38:32.680Z,1580.00
2022-08-08T08:40:00.314Z,1564.00
2022-08-08T08:40:34.687Z,1568.00
2022-08-08T08:41:31.855Z,1568.00
2022-08-08T08:42:36.473Z,1564.00
2022-08-08T08:43:31.881Z,1568.00
2022-08-08T08:44:32.621Z,1568.00
2022-08-08T08:45:31.813Z,1568.00
2022-08-08T08:46:32.682Z,1572.00
2022-08-08T08:47:43.766Z,1572.00
2022-08-08T08:48:32.805Z,1572.00
2022-08-08T08:49:34.115Z,1572.00
2022-08-08T08:50:34.913Z,1576.00
2022-08-08T08:51:32.461Z,1572.00
2022-08-08T08:52:31.722Z,1576.00
2022-08-08T08:53:54.696Z,1576.00
2022-08-08T08:54:34.186Z,1576.00
2022-08-08T08:55:39.258Z,1580.00
2022-08-08T08:56:33.513Z,1588.00
2022-08-08T08:57:31.663Z,1592.00
2022-08-08T08:58:31.875Z,1596.00
2022-08-08T08:59:58.943Z,1612.00
2022-08-08T09:01:02.874Z,1616.00
2022-08-08T09:01:33.448Z,1620.00
2022-08-08T09:02:31.675Z,1628.00
2022-08-08T09:03:46.937Z,1636.00
2022-08-08T09:04:38.595Z,1640.00
2022-08-08T09:05:49.098Z,1648.00
2022-08-08T09:06:34.576Z,1652.00
2022-08-08T09:07:39.452Z,1656.00
2022-08-08T09:08:33.390Z,1664.00
2022-08-08T09:09:39.691Z,1668.00
2022-08-08T09:10:32.753Z,1676.00
2022-08-08T09:11:33.156Z,1684.00
2022-08-08T09:12:31.504Z,1680.00
2022-08-08T09:13:31.925Z,1676.00
2022-08-08T09:14:31.742Z,1668.00
2022-08-08T09:15:40.820Z,1668.00
2022-08-08T09:16:33.389Z,1664.00
2022-08-08T09:17:40.853Z,1656.00
2022-08-08T09:18:32.474Z,1648.00
2022-08-08T09:21:57.181Z,1644.00
2022-08-08T09:22:02.279Z,1644.00
2022-08-08T09:22:02.796Z,1648.00
2022-08-08T09:22:32.396Z,1644.00
2022-08-08T09:23:33.650Z,1648.00
2022-08-08T09:24:33.135Z,1644.00
2022-08-08T09:25:36.050Z,1644.00
2022-08-08T09:26:39.370Z,1648.00
2022-08-08T09:27:55.677Z,1644.00
2022-08-08T09:28:38.300Z,1644.00
2022-08-08T09:29:32.282Z,1640.00
2022-08-08T09:30:31.284Z,1640.00
2022-08-08T09:31:42.561Z,1640.00
2022-08-08T09:32:32.261Z,1640.00
2022-08-08T09:34:28.369Z,1640.00
2022-08-08T09:34:34.505Z,1644.00
2022-08-08T09:35:32.166Z,1640.00
2022-08-08T09:36:32.227Z,1636.00
2022-08-08T09:37:58.509Z,1628.00
2022-08-08T09:38:32.778Z,1644.00
2022-08-08T09:39:32.941Z,1644.00
2022-08-08T09:40:43.913Z,1644.00
2022-08-08T09:41:33.522Z,1652.00
2022-08-08T09:42:31.147Z,1652.00
2022-08-08T09:43:40.641Z,1652.00
2022-08-08T09:44:34.368Z,1652.00
2022-08-08T09:46:00.833Z,1652.00
2022-08-08T09:46:32.175Z,1652.00
2022-08-08T09:48:10.120Z,1656.00
2022-08-08T09:48:35.254Z,1652.00
2022-08-08T09:49:42.725Z,1648.00
2022-08-08T09:50:34.547Z,1648.00
2022-08-08T09:51:31.049Z,1644.00
2022-08-08T09:52:55.434Z,1636.00
2022-08-08T09:53:56.490Z,1624.00
2022-08-08T09:54:37.177Z,1624.00
2022-08-08T09:56:04.893Z,1616.00
2022-08-08T09:56:31.979Z,1620.00
2022-08-08T09:57:35.067Z,1616.00
2022-08-08T09:58:40.631Z,1616.00
2022-08-08T09:59:53.221Z,1616.00
2022-08-08T10:00:49.779Z,1612.00
2022-08-08T10:01:59.338Z,1616.00
2022-08-08T10:02:32.111Z,1620.00
2022-08-08T10:03:33.884Z,1612.00
2022-08-08T10:04:38.538Z,1616.00
2022-08-08T10:05:31.940Z,1616.00
2022-08-08T10:06:30.899Z,1628.00
2022-08-08T10:07:35.987Z,1624.00
2022-08-08T10:08:31.903Z,1624.00
2022-08-08T10:09:30.881Z,1624.00
2022-08-08T10:10:32.354Z,1628.00
2022-08-08T10:12:26.718Z,1628.00
2022-08-08T10:12:38.706Z,1628.00
2022-08-08T10:13:35.448Z,1628.00
2022-08-08T10:14:35.495Z,1632.00
2022-08-08T10:15:31.809Z,1632.00
2022-08-08T10:16:31.071Z,1636.00
2022-08-08T10:18:05.855Z,1640.00
2022-08-08T10:18:31.756Z,1640.00
2022-08-08T10:19:31.457Z,1648.00
2022-08-08T10:20:40.501Z,1652.00
2022-08-08T10:21:32.893Z,1656.00
2022-08-08T10:22:32.314Z,1656.00
2022-08-08T10:23:42.167Z,1660.00
2022-08-08T10:24:35.172Z,1660.00
2022-08-08T10:25:35.985Z,1668.00
2022-08-08T10:26:52.186Z,1672.00
2022-08-08T10:27:34.357Z,1676.00
2022-08-08T10:28:31.624Z,1684.00
2022-08-08T10:29:44.022Z,1692.00
2022-08-08T10:31:00.264Z,1696.00
2022-08-08T10:31:46.489Z,1708.00
2022-08-08T10:32:31.844Z,1716.00
2022-08-08T10:33:37.970Z,1724.00
2022-08-08T10:34:31.732Z,1732.00
2022-08-08T10:36:07.234Z,1736.00
2022-08-08T10:36:31.554Z,1740.00
2022-08-08T10:37:30.606Z,1740.00
2022-08-08T10:38:30.528Z,1748.00
2022-08-08T10:39:53.433Z,1752.00
2022-08-08T10:40:32.581Z,1764.00
2022-08-08T10:41:35.452Z,1772.00
2022-08-08T10:42:31.801Z,1780.00
2022-08-08T10:43:32.158Z,1784.00
2022-08-08T10:44:32.225Z,1792.00
2022-08-08T10:45:30.481Z,1816.00
2022-08-08T10:46:31.424Z,1804.00
2022-08-08T10:47:43.157Z,1800.00
2022-08-08T10:48:31.405Z,1804.00
2022-08-08T10:50:01.719Z,1808.00
2022-08-08T10:50:31.938Z,1804.00
2022-08-08T10:51:31.411Z,1800.00
2022-08-08T10:52:31.593Z,1800.00
2022-08-08T10:53:56.543Z,1792.00
2022-08-08T10:54:31.347Z,1784.00
2022-08-08T10:55:39.780Z,1780.00
2022-08-08T10:56:32.285Z,1772.00
2022-08-08T10:57:45.104Z,1772.00
2022-08-08T10:58:31.296Z,1768.00
2022-08-08T10:59:30.948Z,1760.00
2022-08-08T11:00:30.446Z,1760.00
2022-08-08T11:01:33.449Z,1740.00
2022-08-08T11:02:30.530Z,1744.00
2022-08-08T11:03:36.759Z,1736.00
2022-08-08T11:04:39.039Z,1736.00
2022-08-08T11:05:38.306Z,1740.00
2022-08-08T11:06:31.230Z,1764.00
2022-08-08T11:08:31.138Z,1764.00
2022-08-08T11:08:41.013Z,1760.00
2022-08-08T11:09:32.158Z,1772.00
2022-08-08T11:10:30.165Z,1768.00
2022-08-08T11:11:32.088Z,1768.00
2022-08-08T11:12:31.403Z,1764.00
2022-08-08T11:13:31.949Z,1772.00
2022-08-08T11:14:30.109Z,1772.00
2022-08-08T11:15:30.840Z,1776.00
2022-08-08T11:16:32.400Z,1784.00
2022-08-08T11:17:58.909Z,1784.00
2022-08-08T11:18:31.077Z,1800.00
2022-08-08T11:19:31.683Z,1804.00
2022-08-08T11:20:30.958Z,1816.00
2022-08-08T11:21:35.217Z,1820.00
2022-08-08T11:22:31.315Z,1820.00
2022-08-08T11:23:31.290Z,1828.00
2022-08-08T11:24:30.099Z,1836.00
2022-08-08T11:25:52.169Z,1832.00
2022-08-08T11:26:31.037Z,1828.00
2022-08-08T11:27:37.269Z,1832.00
2022-08-08T11:28:31.966Z,1840.00
2022-08-08T11:29:50.900Z,1844.00
2022-08-08T11:30:31.743Z,1836.00
2022-08-08T11:31:29.980Z,1844.00
2022-08-08T11:32:30.958Z,1832.00
2022-08-08T11:33:52.412Z,1844.00
2022-08-08T11:34:46.857Z,1844.00
2022-08-08T11:35:38.349Z,1844.00
2022-08-08T11:36:31.020Z,1836.00
2022-08-08T11:38:36.115Z,1840.00
2022-08-08T11:38:38.465Z,1848.00
2022-08-08T11:39:36.863Z,1860.00
2022-08-08T11:40:31.568Z,1860.00
2022-08-08T11:41:33.810Z,1860.00
2022-08-08T11:42:31.279Z,1856.00
2022-08-08T11:43:38.802Z,1844.00
2022-08-08T11:44:31.595Z,1836.00
2022-08-08T11:45:29.876Z,1840.00
2022-08-08T11:46:31.819Z,1836.00
2022-08-08T11:47:39.644Z,1828.00
2022-08-08T11:48:30.745Z,1828.00
2022-08-08T11:49:29.810Z,1836.00
2022-08-08T11:50:30.273Z,1832.00
2022-08-08T11:51:40.515Z,1832.00
2022-08-08T11:52:32.090Z,1828.00
2022-08-08T11:53:29.695Z,1828.00
2022-08-08T11:54:32.189Z,1828.00
2022-08-08T11:55:29.694Z,1828.00
2022-08-08T11:56:29.712Z,1828.00
2022-08-08T11:57:34.803Z,1832.00
2022-08-08T11:58:30.624Z,1832.00
2022-08-08T11:59:57.889Z,1836.00
2022-08-08T12:00:30.645Z,1832.00
2022-08-08T12:01:29.854Z,1836.00
2022-08-08T12:02:32.822Z,1836.00
2022-08-08T12:03:31.156Z,1832.00
2022-08-08T12:04:29.555Z,1836.00
2022-08-08T12:05:29.765Z,1836.00
2022-08-08T12:06:29.763Z,1836.00
2022-08-08T12:07:29.776Z,1848.00
2022-08-08T12:08:30.196Z,1848.00
2022-08-08T12:09:29.527Z,1848.00
2022-08-08T12:10:30.522Z,1848.00
2022-08-08T12:11:29.499Z,1844.00
2022-08-08T12:12:29.688Z,1836.00
2022-08-08T12:13:37.935Z,1844.00
2022-08-08T12:14:30.446Z,1840.00
2022-08-08T12:15:29.451Z,1836.00
2022-08-08T12:16:33.008Z,1840.00
2022-08-08T12:17:31.235Z,1840.00
2022-08-08T12:18:29.426Z,1840.00
2022-08-08T12:19:37.512Z,1844.00
2022-08-08T12:20:30.377Z,1844.00
2022-08-08T12:21:59.800Z,1848.00
2022-08-08T12:22:36.942Z,1848.00
2022-08-08T12:23:43.100Z,1848.00
2022-08-08T12:24:30.327Z,1848.00
2022-08-08T12:25:30.119Z,1852.00
2022-08-08T12:26:36.238Z,1852.00
2022-08-08T12:27:43.331Z,1852.00
2022-08-08T12:28:31.084Z,1852.00